createdAt,value
2019-01-15T00:02:13.736Z,100022.33
2019-01-15T00:04:49.097Z,100018.98
2019-01-15T00:07:19.672Z,100016.18
2019-01-15T00:09:50.811Z,100024.42
2019-01-15T00:12:22.439Z,100021.70
2019-01-15T00:14:56.144Z,100020.20
2019-01-15T00:17:30.061Z,100024.89
2019-01-15T00:20:04.790Z,100023.31
2019-01-15T00:22:36.700Z,100021.06
2019-01-15T00:25:07.962Z,100025.05
2019-01-15T00:27:41.748Z,100036.17
2019-01-15T00:30:17.859Z,100033.44
2019-01-15T00:32:48.509Z,100036.42
2019-01-15T00:35:29.247Z,100035.00
2019-01-15T00:38:00.408Z,100044.34
2019-01-15T00:40:34.619Z,100038.08
2019-01-15T00:43:20.370Z,100039.41
2019-01-15T00:45:52.600Z,100036.40
2019-01-15T00:48:23.057Z,100041.39
2019-01-15T00:50:56.480Z,100045.16
2019-01-15T00:53:29.342Z,100045.46
2019-01-15T00:56:00.147Z,100045.97
2019-01-15T00:58:30.910Z,100042.55
2019-01-15T01:01:09.357Z,100047.64
2019-01-15T01:03:41.798Z,100055.59
2019-01-15T01:06:12.420Z,100059.68
2019-01-15T01:08:43.027Z,100066.29
2019-01-15T01:11:13.764Z,100062.12
2019-01-15T01:13:50.431Z,100067.67
2019-01-15T01:16:22.103Z,100070.34
2019-01-15T01:18:52.713Z,100076.19
2019-01-15T01:21:27.027Z,100078.94
2019-01-15T01:24:02.132Z,100079.60
2019-01-15T01:26:35.504Z,100073.73
2019-01-15T01:29:13.047Z,100075.72
2019-01-15T01:31:45.579Z,100074.61
2019-01-15T01:34:20.155Z,100072.80
2019-01-15T01:36:56.481Z,100081.47
2019-01-15T01:39:29.814Z,100085.73
2019-01-15T01:42:00.620Z,100081.36
2019-01-15T01:44:31.908Z,100081.98
2019-01-15T01:47:05.809Z,100080.87
2019-01-15T01:49:38.627Z,100086.31
2019-01-15T01:52:09.116Z,100084.28
2019-01-15T01:54:39.632Z,100074.27
2019-01-15T01:57:12.404Z,100084.36
2019-01-15T01:59:45.147Z,100086.69
2019-01-15T02:02:15.608Z,100096.84
2019-01-15T02:04:46.533Z,100092.11
2019-01-15T02:07:17.462Z,100094.20
2019-01-15T02:09:49.109Z,100088.52
2019-01-15T02:12:19.634Z,100098.94
2019-01-15T02:14:54.844Z,100101.45
2019-01-15T02:17:26.452Z,100088.11
2019-01-15T02:20:01.138Z,100097.38
2019-01-15T02:22:33.042Z,100101.58
2019-01-15T02:25:10.133Z,100098.30
2019-01-15T02:27:43.257Z,100105.70
2019-01-15T02:30:29.644Z,100106.34
2019-01-15T02:33:09.108Z,100090.63
2019-01-15T02:35:39.523Z,100109.98
2019-01-15T02:38:10.009Z,100105.27
2019-01-15T02:40:42.939Z,100117.00
2019-01-15T02:43:17.347Z,100110.29
2019-01-15T02:45:50.418Z,100116.06
2019-01-15T02:48:22.192Z,100118.72
2019-01-15T02:50:53.016Z,100110.80
2019-01-15T02:53:26.726Z,100101.91
2019-01-15T02:55:58.774Z,100105.13
2019-01-15T02:58:29.386Z,100108.45
2019-01-15T03:01:00.162Z,100108.66
2019-01-15T03:03:30.750Z,100108.53
2019-01-15T03:06:06.514Z,100108.56
2019-01-15T03:08:36.856Z,100109.22
2019-01-15T03:11:10.376Z,100107.86
2019-01-15T03:13:49.660Z,100118.15
2019-01-15T03:16:26.658Z,100107.10
2019-01-15T03:19:00.053Z,100099.77
2019-01-15T03:21:46.868Z,100110.52
2019-01-15T03:24:20.491Z,100114.27
2019-01-15T03:26:52.565Z,100113.88
2019-01-15T03:29:26.390Z,100118.34
2019-01-15T03:31:58.939Z,100118.80
2019-01-15T03:34:32.107Z,100123.77
2019-01-15T03:37:05.811Z,100114.78
2019-01-15T03:39:39.165Z,100116.09
2019-01-15T03:42:09.870Z,100114.51
2019-01-15T03:44:44.982Z,100114.11
2019-01-15T03:47:17.258Z,100112.03
2019-01-15T03:49:49.145Z,100107.84
2019-01-15T03:52:22.805Z,100114.81
2019-01-15T03:54:59.045Z,100120.51
2019-01-15T03:57:34.610Z,100125.52
2019-01-15T04:00:07.614Z,100127.47
2019-01-15T04:02:44.251Z,100140.66
2019-01-15T04:05:16.562Z,100127.41
2019-01-15T04:07:47.817Z,100135.28
2019-01-15T04:10:21.884Z,100133.86
2019-01-15T04:12:52.335Z,100131.77
2019-01-15T04:15:24.212Z,100147.71
2019-01-15T04:17:56.823Z,100147.89
2019-01-15T04:20:27.297Z,100144.45
2019-01-15T04:22:58.425Z,100153.52
2019-01-15T04:25:28.909Z,100156.50
2019-01-15T04:28:02.695Z,100154.56
2019-01-15T04:30:33.121Z,100149.94
2019-01-15T04:33:03.579Z,100142.31
2019-01-15T04:35:36.489Z,100141.86
2019-01-15T04:38:06.711Z,100142.09
2019-01-15T04:40:40.703Z,100143.81
2019-01-15T04:43:19.678Z,100140.70
2019-01-15T04:45:45.907Z,100141.78
2019-01-15T04:48:16.303Z,100135.17
2019-01-15T04:50:46.675Z,100129.32
2019-01-15T04:53:17.141Z,100133.36
2019-01-15T04:55:47.599Z,100132.89
2019-01-15T04:58:18.052Z,100142.42
2019-01-15T05:00:48.381Z,100142.65
2019-01-15T05:03:19.245Z,100145.87
2019-01-15T05:05:51.867Z,100155.34
2019-01-15T05:08:22.323Z,100152.89
2019-01-15T05:10:52.748Z,100153.83
2019-01-15T05:13:27.369Z,100157.69
2019-01-15T05:15:56.048Z,100150.86
2019-01-15T05:18:26.585Z,100148.61
2019-01-15T05:20:57.165Z,100153.23
2019-01-15T05:23:29.193Z,100151.35
2019-01-15T05:26:00.190Z,100152.67
2019-01-15T05:28:30.571Z,100148.05
2019-01-15T05:31:05.088Z,100151.63
2019-01-15T05:33:38.009Z,100165.39
2019-01-15T05:36:10.198Z,100166.03
2019-01-15T05:38:40.682Z,100155.59
2019-01-15T05:41:13.789Z,100163.94
2019-01-15T05:43:44.544Z,100163.27
2019-01-15T05:46:14.972Z,100153.85
2019-01-15T05:48:45.354Z,100150.73
2019-01-15T05:51:34.740Z,100158.78
2019-01-15T05:54:05.225Z,100152.69
2019-01-15T05:56:35.609Z,100151.55
2019-01-15T05:59:06.057Z,100143.45
2019-01-15T06:01:36.383Z,100147.69
2019-01-15T06:04:09.908Z,100146.34
2019-01-15T06:06:40.518Z,100150.02
2019-01-15T06:09:12.676Z,100143.62
2019-01-15T06:11:43.476Z,100148.27
2019-01-15T06:14:17.397Z,100134.96
2019-01-15T06:16:48.320Z,100125.27
2019-01-15T06:19:21.042Z,100133.09
2019-01-15T06:21:54.674Z,100137.38
2019-01-15T06:24:25.546Z,100126.20
2019-01-15T06:27:00.511Z,100130.90
2019-01-15T06:29:31.371Z,100140.53
2019-01-15T06:32:01.783Z,100141.92
2019-01-15T06:34:32.167Z,100135.50
2019-01-15T06:37:02.495Z,100143.78
2019-01-15T06:39:55.995Z,100140.81
2019-01-15T06:42:26.803Z,100152.69
2019-01-15T06:45:12.540Z,100158.78
2019-01-15T06:55:37.892Z,100155.55
2019-01-15T07:05:57.852Z,100154.27
2019-01-15T07:08:28.275Z,100160.56
2019-01-15T07:10:59.518Z,100166.97
2019-01-15T07:13:29.996Z,100164.58
2019-01-15T07:16:02.440Z,100163.01
2019-01-15T07:18:33.266Z,100172.55
2019-01-15T07:21:03.730Z,100176.09
2019-01-15T07:23:34.256Z,100187.80
2019-01-15T07:26:06.769Z,100181.41
2019-01-15T07:28:36.908Z,100184.05
2019-01-15T07:31:08.571Z,100178.63
2019-01-15T07:33:39.353Z,100186.53
2019-01-15T07:36:09.997Z,100176.16
2019-01-15T07:38:41.408Z,100177.56
2019-01-15T07:41:12.098Z,100175.77
2019-01-15T07:43:42.462Z,100182.00
2019-01-15T07:46:12.938Z,100175.52
2019-01-15T07:48:44.281Z,100188.02
2019-01-15T07:51:14.643Z,100186.41
2019-01-15T07:53:47.173Z,100191.74
2019-01-15T07:56:17.775Z,100193.48
2019-01-15T07:58:52.627Z,100188.16
2019-01-15T08:01:25.316Z,100190.86
2019-01-15T08:03:58.335Z,100185.52
2019-01-15T08:06:29.202Z,100199.92
2019-01-15T08:09:34.763Z,100196.97
2019-01-15T08:11:32.457Z,100198.23
2019-01-15T08:14:11.893Z,100207.28
2019-01-15T08:16:39.144Z,100196.42
2019-01-15T08:19:11.160Z,100184.55
2019-01-15T08:21:41.554Z,100171.08
2019-01-15T08:24:13.886Z,100172.19
2019-01-15T08:26:44.584Z,100154.03
2019-01-15T08:29:14.971Z,100144.56
2019-01-15T08:31:46.131Z,100155.83
2019-01-15T08:34:17.018Z,100144.82
2019-01-15T08:36:47.881Z,100127.55
2019-01-15T08:39:18.587Z,100140.30
2019-01-15T08:41:50.349Z,100134.67
2019-01-15T08:44:26.086Z,100127.95
2019-01-15T08:46:56.851Z,100130.69
2019-01-15T08:49:27.442Z,100135.14
2019-01-15T08:51:58.253Z,100123.34
2019-01-15T08:54:31.949Z,100124.98
2019-01-15T08:57:02.892Z,100123.58
2019-01-15T09:00:51.057Z,100137.03
2019-01-15T09:03:23.546Z,100133.11
2019-01-15T09:06:08.755Z,100137.33
2019-01-15T09:08:41.962Z,100139.45
2019-01-15T09:11:45.411Z,100141.12
2019-01-15T09:15:03.892Z,100133.44
2019-01-15T09:17:39.115Z,100128.99
2019-01-15T09:20:14.686Z,100128.67
2019-01-15T09:22:45.330Z,100127.64
2019-01-15T09:25:19.960Z,100131.71
2019-01-15T09:27:58.322Z,100122.40
2019-01-15T09:30:28.982Z,100125.13
2019-01-15T09:33:02.923Z,100121.61
2019-01-15T09:35:33.895Z,100116.06
2019-01-15T09:38:30.821Z,100120.41
2019-01-15T09:41:11.976Z,100109.75
2019-01-15T09:43:47.662Z,100103.03
2019-01-15T09:46:36.207Z,100094.60
2019-01-15T09:49:08.630Z,100093.91
2019-01-15T09:53:07.317Z,100094.61
2019-01-15T09:55:46.477Z,100103.86
2019-01-15T09:58:16.966Z,100089.94
2019-01-15T10:00:47.680Z,100092.51
2019-01-15T10:03:18.171Z,100081.80
2019-01-15T10:05:48.892Z,100079.87
2019-01-15T10:08:34.568Z,100073.67
2019-01-15T10:11:05.266Z,100075.88
2019-01-15T10:13:40.454Z,100081.84
2019-01-15T10:16:34.993Z,100072.27
2019-01-15T10:19:06.467Z,100075.72
2019-01-15T10:24:48.049Z,100065.01
2019-01-15T10:27:50.818Z,100067.27
2019-01-15T10:31:36.433Z,100062.88
2019-01-15T10:37:02.798Z,100054.89
2019-01-15T10:39:36.301Z,100062.19
2019-01-15T10:42:10.875Z,100054.03
2019-01-15T10:45:20.329Z,100037.66
2019-01-15T10:48:12.612Z,100027.14
2019-01-15T10:50:45.394Z,100039.34
2019-01-15T10:53:27.410Z,100029.05
2019-01-15T10:56:27.076Z,100025.12
2019-01-15T10:59:47.391Z,100037.42
2019-01-15T11:02:18.823Z,100027.85
2019-01-15T11:04:49.249Z,100021.03
2019-01-15T11:07:21.834Z,100023.61
2019-01-15T11:09:56.886Z,100019.85
2019-01-15T11:13:27.590Z,100020.09
2019-01-15T11:27:49.739Z,100007.75
2019-01-15T11:32:00.831Z,100013.52
2019-01-15T11:35:41.784Z,100007.27
2019-01-15T11:42:23.381Z,99997.77
2019-01-15T11:45:03.208Z,99995.34
2019-01-15T11:47:29.824Z,100009.95
2019-01-15T11:50:07.432Z,99994.67
2019-01-15T11:52:45.109Z,99991.02
2019-01-15T11:55:19.048Z,99990.65
2019-01-15T11:57:52.209Z,99980.77
2019-01-15T12:00:49.640Z,99987.84
2019-01-15T12:03:34.512Z,99983.97
2019-01-15T12:06:39.309Z,99971.78
2019-01-15T12:09:34.764Z,99979.23
2019-01-15T12:12:30.210Z,99966.87
2019-01-15T12:15:22.849Z,99967.74
2019-01-15T12:18:13.151Z,99968.17
2019-01-15T12:21:16.915Z,99958.82
2019-01-15T12:24:07.726Z,99948.03
2019-01-15T12:27:01.963Z,99955.90
2019-01-15T12:30:18.393Z,99962.66
2019-01-15T12:33:26.236Z,99947.59
2019-01-15T12:36:24.726Z,99948.77
2019-01-15T12:39:21.235Z,99953.86
2019-01-15T12:42:47.175Z,99937.72
2019-01-15T12:46:35.497Z,99949.47
2019-01-15T12:49:44.628Z,99935.60
2019-01-15T12:52:36.096Z,99935.12
2019-01-15T12:55:32.058Z,99932.20
2019-01-15T12:58:51.380Z,99932.35
2019-01-15T13:06:24.323Z,99931.52
2019-01-15T13:09:32.470Z,99926.02
2019-01-15T13:12:39.660Z,99926.94
2019-01-15T13:15:36.291Z,99943.06
2019-01-15T13:18:20.709Z,99930.60
2019-01-15T13:21:16.337Z,99940.95
2019-01-15T13:24:38.318Z,99939.61
2019-01-15T13:27:51.668Z,99945.73
2019-01-15T13:31:08.809Z,99936.34
2019-01-15T13:34:32.893Z,99952.67
2019-01-15T13:37:34.973Z,99919.48
2019-01-15T13:40:35.229Z,99930.07
2019-01-15T13:44:03.293Z,99926.27
2019-01-15T13:47:21.357Z,99926.30
2019-01-15T13:50:31.804Z,99919.05
2019-01-15T13:54:35.334Z,99908.96
2019-01-15T13:57:55.607Z,99902.11
2019-01-15T14:01:59.385Z,99897.06
2019-01-15T14:05:16.369Z,99890.11
2019-01-15T14:08:16.107Z,99891.44
2019-01-15T14:11:23.880Z,99892.17
2019-01-15T14:14:26.393Z,99891.86
2019-01-15T14:17:30.457Z,99882.97
2019-01-15T14:21:14.313Z,99884.11
2019-01-15T14:28:39.803Z,99862.52
2019-01-15T14:31:47.869Z,99869.70
2019-01-15T14:34:53.059Z,99865.00
2019-01-15T14:37:58.596Z,99863.09
2019-01-15T14:41:10.818Z,99862.45
2019-01-15T14:44:39.090Z,99866.02
2019-01-15T14:47:49.313Z,99864.72
2019-01-15T14:51:46.052Z,99866.61
2019-01-15T14:55:21.897Z,99861.20
2019-01-15T14:59:09.166Z,99857.59
2019-01-15T15:20:26.207Z,99853.52
2019-01-15T15:27:32.418Z,99861.52
2019-01-15T15:30:25.908Z,99863.03
2019-01-15T15:33:35.376Z,99855.09
2019-01-15T15:36:40.778Z,99857.20
2019-01-15T15:40:31.726Z,99841.36
2019-01-15T15:44:07.347Z,99843.73
2019-01-15T15:54:55.683Z,99835.48
2019-01-15T16:01:02.402Z,99828.17
2019-01-15T16:04:03.962Z,99844.21
2019-01-15T16:06:58.953Z,99837.09
2019-01-15T16:09:50.093Z,99839.22
2019-01-15T16:13:03.707Z,99832.25
2019-01-15T16:15:51.199Z,99845.82
2019-01-15T16:18:45.939Z,99833.89
2019-01-15T16:21:41.823Z,99839.06
2019-01-15T16:25:01.767Z,99836.20
2019-01-15T16:39:37.685Z,99837.69
2019-01-15T16:42:37.667Z,99836.02
2019-01-15T16:45:36.406Z,99834.45
2019-01-15T16:49:11.894Z,99829.45
2019-01-15T16:51:52.669Z,99830.27
2019-01-15T16:54:48.681Z,99820.69
2019-01-15T16:58:10.698Z,99824.14
2019-01-15T17:01:03.328Z,99810.30
2019-01-15T17:04:00.583Z,99822.22
2019-01-15T17:06:51.337Z,99818.92
2019-01-15T17:10:25.504Z,99826.97
2019-01-15T17:22:20.650Z,99828.25
2019-01-15T17:25:25.092Z,99827.97
2019-01-15T17:35:23.307Z,99822.62
2019-01-15T17:38:44.259Z,99825.16
2019-01-15T17:49:40.948Z,99814.77
2019-01-15T17:52:43.572Z,99818.63
2019-01-15T17:55:43.262Z,99818.59
2019-01-15T17:59:00.092Z,99812.31
2019-01-15T18:02:13.375Z,99826.42
2019-01-15T18:05:16.772Z,99826.70
2019-01-15T18:08:14.162Z,99824.22
2019-01-15T18:11:14.452Z,99823.98
2019-01-15T18:17:27.498Z,99828.92
2019-01-15T18:20:42.359Z,99809.88
2019-01-15T18:24:38.553Z,99822.14
2019-01-15T18:27:53.601Z,99819.47
2019-01-15T19:53:37.150Z,99808.68
2019-01-15T20:01:45.821Z,99818.06
2019-01-15T20:05:12.964Z,99811.94
2019-01-15T20:08:46.381Z,99815.00
2019-01-15T20:11:46.021Z,99812.73
2019-01-15T20:22:04.641Z,99823.05
2019-01-15T20:25:38.590Z,99832.99
2019-01-15T20:29:11.830Z,99816.53
2019-01-15T20:32:09.305Z,99835.66
2019-01-15T20:35:43.246Z,99839.63
2019-01-15T20:43:33.411Z,99839.53
2019-01-15T20:47:26.986Z,99847.45
2019-01-15T20:58:13.891Z,99845.41
2019-01-15T21:01:48.478Z,99845.47
2019-01-15T21:06:29.723Z,99832.76
2019-01-15T21:07:53.397Z,99832.60
2019-01-15T21:11:49.376Z,99844.08
2019-01-15T21:21:52.467Z,99842.73
2019-01-15T21:28:19.460Z,99846.63
2019-01-15T21:31:26.046Z,99854.07
2019-01-15T21:34:43.840Z,99847.45
2019-01-15T21:37:48.301Z,99851.30
2019-01-15T21:41:06.173Z,99849.61
2019-01-15T21:47:21.237Z,99853.61
2019-01-15T21:51:00.278Z,99852.25
2019-01-15T22:00:59.656Z,99852.80
2019-01-15T22:06:17.120Z,99856.97
2019-01-15T22:08:41.610Z,99850.13
2019-01-15T22:14:52.067Z,99849.78
2019-01-15T22:18:44.416Z,99844.47
2019-01-15T22:21:59.302Z,99840.63
2019-01-15T22:29:17.157Z,99835.61
2019-01-15T22:32:43.811Z,99841.42
2019-01-15T22:37:38.254Z,99849.56
2019-01-15T22:39:41.580Z,99843.47
2019-01-15T22:46:43.030Z,99847.52
2019-01-15T22:49:47.572Z,99831.23
2019-01-15T22:57:16.064Z,99836.45
2019-01-15T23:00:17.460Z,99841.16
2019-01-15T23:03:45.280Z,99830.83
2019-01-15T23:18:19.623Z,99841.30
2019-01-15T23:21:32.967Z,99843.28
2019-01-15T23:28:08.792Z,99832.63
2019-01-15T23:34:57.612Z,99824.13
2019-01-15T23:44:45.696Z,99827.02
2019-01-15T23:47:58.429Z,99819.44
2019-01-15T23:51:19.094Z,99817.98
2019-01-15T23:54:33.380Z,99823.08
2019-01-15T23:57:35.657Z,99819.09
